sensor_id;sensor_type;location;lat;lon;timestamp;P1;durP1;ratioP1;P2;durP2;ratioP2
70558;SDS011;58108;48.094;11.838;2023-04-25T00:01:55;3.13;;;0.90;;
70558;SDS011;58108;48.094;11.838;2023-04-25T00:04:21;2.95;;;0.90;;
70558;SDS011;58108;48.094;11.838;2023-04-25T00:06:47;2.80;;;0.90;;
70558;SDS011;58108;48.094;11.838;2023-04-25T00:09:12;3.40;;;0.90;;
70558;SDS011;58108;48.094;11.838;2023-04-25T00:11:37;3.10;;;1.20;;
70558;SDS011;58108;48.094;11.838;2023-04-25T00:14:03;3.22;;;1.00;;
70558;SDS011;58108;48.094;11.838;2023-04-25T00:16:28;2.90;;;0.90;;
70558;SDS011;58108;48.094;11.838;2023-04-25T00:18:55;3.30;;;0.90;;
70558;SDS011;58108;48.094;11.838;2023-04-25T00:21:21;5.00;;;0.87;;
70558;SDS011;58108;48.094;11.838;2023-04-25T00:23:47;3.70;;;1.10;;
70558;SDS011;58108;48.094;11.838;2023-04-25T00:26:12;3.83;;;1.20;;
70558;SDS011;58108;48.094;11.838;2023-04-25T00:28:38;2.57;;;0.93;;
70558;SDS011;58108;48.094;11.838;2023-04-25T00:31:04;4.05;;;0.82;;
70558;SDS011;58108;48.094;11.838;2023-04-25T00:33:29;2.57;;;0.80;;
70558;SDS011;58108;48.094;11.838;2023-04-25T00:35:55;2.60;;;0.80;;
70558;SDS011;58108;48.094;11.838;2023-04-25T00:38:20;3.00;;;1.00;;
70558;SDS011;58108;48.094;11.838;2023-04-25T00:40:45;4.67;;;1.07;;
70558;SDS011;58108;48.094;11.838;2023-04-25T00:43:10;4.23;;;1.10;;
70558;SDS011;58108;48.094;11.838;2023-04-25T00:45:36;3.10;;;1.17;;
70558;SDS011;58108;48.094;11.838;2023-04-25T00:48:02;4.13;;;1.20;;
70558;SDS011;58108;48.094;11.838;2023-04-25T00:50:28;2.73;;;0.90;;
70558;SDS011;58108;48.094;11.838;2023-04-25T00:52:53;3.13;;;0.80;;
70558;SDS011;58108;48.094;11.838;2023-04-25T00:55:19;3.75;;;1.08;;
70558;SDS011;58108;48.094;11.838;2023-04-25T00:57:44;3.30;;;1.00;;
70558;SDS011;58108;48.094;11.838;2023-04-25T01:00:09;3.10;;;0.90;;
70558;SDS011;58108;48.094;11.838;2023-04-25T01:02:36;3.90;;;1.00;;
70558;SDS011;58108;48.094;11.838;2023-04-25T01:05:02;3.08;;;0.90;;
70558;SDS011;58108;48.094;11.838;2023-04-25T01:07:28;3.75;;;1.00;;
70558;SDS011;58108;48.094;11.838;2023-04-25T01:09:53;3.50;;;1.10;;
70558;SDS011;58108;48.094;11.838;2023-04-25T01:12:18;5.53;;;1.10;;
70558;SDS011;58108;48.094;11.838;2023-04-25T01:14:43;3.10;;;1.07;;
70558;SDS011;58108;48.094;11.838;2023-04-25T01:17:09;2.77;;;1.00;;
70558;SDS011;58108;48.094;11.838;2023-04-25T01:19:34;2.63;;;0.77;;
70558;SDS011;58108;48.094;11.838;2023-04-25T01:22:00;4.72;;;0.90;;
70558;SDS011;58108;48.094;11.838;2023-04-25T01:24:25;2.93;;;1.00;;
70558;SDS011;58108;48.094;11.838;2023-04-25T01:26:51;3.10;;;0.80;;
70558;SDS011;58108;48.094;11.838;2023-04-25T01:29:17;3.00;;;0.80;;
70558;SDS011;58108;48.094;11.838;2023-04-25T01:31:42;3.85;;;0.98;;
70558;SDS011;58108;48.094;11.838;2023-04-25T01:34:08;3.75;;;1.10;;
70558;SDS011;58108;48.094;11.838;2023-04-25T01:36:33;2.80;;;0.93;;
70558;SDS011;58108;48.094;11.838;2023-04-25T01:38:58;2.97;;;1.10;;
70558;SDS011;58108;48.094;11.838;2023-04-25T01:41:23;3.67;;;0.90;;
70558;SDS011;58108;48.094;11.838;2023-04-25T01:43:49;3.47;;;1.13;;
70558;SDS011;58108;48.094;11.838;2023-04-25T01:46:14;3.33;;;1.03;;
70558;SDS011;58108;48.094;11.838;2023-04-25T01:48:39;4.10;;;1.00;;
70558;SDS011;58108;48.094;11.838;2023-04-25T01:51:05;4.67;;;1.20;;
70558;SDS011;58108;48.094;11.838;2023-04-25T01:53:30;2.87;;;0.93;;
70558;SDS011;58108;48.094;11.838;2023-04-25T01:55:55;3.30;;;1.10;;
70558;SDS011;58108;48.094;11.838;2023-04-25T01:58:20;2.87;;;0.87;;
70558;SDS011;58108;48.094;11.838;2023-04-25T02:00:46;3.30;;;1.10;;
70558;SDS011;58108;48.094;11.838;2023-04-25T02:03:11;4.83;;;1.10;;
70558;SDS011;58108;48.094;11.838;2023-04-25T02:05:37;3.60;;;1.03;;
70558;SDS011;58108;48.094;11.838;2023-04-25T02:08:03;4.15;;;1.15;;
70558;SDS011;58108;48.094;11.838;2023-04-25T02:10:28;3.58;;;1.23;;
70558;SDS011;58108;48.094;11.838;2023-04-25T02:12:53;4.50;;;1.20;;
70558;SDS011;58108;48.094;11.838;2023-04-25T02:15:19;3.60;;;1.63;;
70558;SDS011;58108;48.094;11.838;2023-04-25T02:17:44;2.70;;;0.83;;
70558;SDS011;58108;48.094;11.838;2023-04-25T02:20:10;2.83;;;1.10;;
70558;SDS011;58108;48.094;11.838;2023-04-25T02:22:35;4.50;;;1.08;;
70558;SDS011;58108;48.094;11.838;2023-04-25T02:25:01;3.07;;;1.00;;
70558;SDS011;58108;48.094;11.838;2023-04-25T02:27:27;3.10;;;1.00;;
70558;SDS011;58108;48.094;11.838;2023-04-25T02:29:52;2.87;;;1.10;;
70558;SDS011;58108;48.094;11.838;2023-04-25T02:32:17;2.50;;;0.87;;
70558;SDS011;58108;48.094;11.838;2023-04-25T02:34:42;3.33;;;1.20;;
70558;SDS011;58108;48.094;11.838;2023-04-25T02:37:08;3.37;;;1.03;;
70558;SDS011;58108;48.094;11.838;2023-04-25T02:39:33;3.70;;;1.10;;
70558;SDS011;58108;48.094;11.838;2023-04-25T02:41:58;3.70;;;1.10;;
70558;SDS011;58108;48.094;11.838;2023-04-25T02:44:23;3.10;;;1.13;;
70558;SDS011;58108;48.094;11.838;2023-04-25T02:46:48;3.70;;;1.27;;
70558;SDS011;58108;48.094;11.838;2023-04-25T02:49:13;3.83;;;1.00;;
70558;SDS011;58108;48.094;11.838;2023-04-25T02:51:39;6.78;;;1.40;;
70558;SDS011;58108;48.094;11.838;2023-04-25T02:54:04;3.67;;;1.00;;
70558;SDS011;58108;48.094;11.838;2023-04-25T02:56:31;3.88;;;1.10;;
70558;SDS011;58108;48.094;11.838;2023-04-25T02:58:56;4.33;;;1.10;;
70558;SDS011;58108;48.094;11.838;2023-04-25T03:01:21;3.87;;;1.00;;
70558;SDS011;58108;48.094;11.838;2023-04-25T03:03:46;3.60;;;1.10;;
70558;SDS011;58108;48.094;11.838;2023-04-25T03:06:12;3.27;;;1.20;;
70558;SDS011;58108;48.094;11.838;2023-04-25T03:08:37;4.90;;;1.20;;
70558;SDS011;58108;48.094;11.838;2023-04-25T03:11:02;2.70;;;1.10;;
70558;SDS011;58108;48.094;11.838;2023-04-25T03:13:27;4.47;;;1.10;;
70558;SDS011;58108;48.094;11.838;2023-04-25T03:15:54;3.00;;;1.20;;
70558;SDS011;58108;48.094;11.838;2023-04-25T03:18:20;3.17;;;1.00;;
70558;SDS011;58108;48.094;11.838;2023-04-25T03:20:45;3.53;;;1.40;;
70558;SDS011;58108;48.094;11.838;2023-04-25T03:23:11;2.97;;;0.98;;
70558;SDS011;58108;48.094;11.838;2023-04-25T03:25:36;3.40;;;1.10;;
70558;SDS011;58108;48.094;11.838;2023-04-25T03:28:02;5.43;;;1.50;;
70558;SDS011;58108;48.094;11.838;2023-04-25T03:30:27;4.70;;;1.20;;
70558;SDS011;58108;48.094;11.838;2023-04-25T03:32:52;3.85;;;1.10;;
70558;SDS011;58108;48.094;11.838;2023-04-25T03:35:17;2.20;;;0.63;;
70558;SDS011;58108;48.094;11.838;2023-04-25T03:37:42;2.93;;;0.90;;
70558;SDS011;58108;48.094;11.838;2023-04-25T03:40:11;4.68;;;1.55;;
70558;SDS011;58108;48.094;11.838;2023-04-25T03:42:36;2.60;;;1.00;;
70558;SDS011;58108;48.094;11.838;2023-04-25T03:45:01;2.73;;;0.70;;
70558;SDS011;58108;48.094;11.838;2023-04-25T03:47:26;4.83;;;0.93;;
70558;SDS011;58108;48.094;11.838;2023-04-25T03:49:52;3.23;;;1.00;;
70558;SDS011;58108;48.094;11.838;2023-04-25T03:52:17;1.37;;;0.30;;
70558;SDS011;58108;48.094;11.838;2023-04-25T03:54:42;6.33;;;0.77;;
70558;SDS011;58108;48.094;11.838;2023-04-25T03:57:08;2.93;;;0.50;;
70558;SDS011;58108;48.094;11.838;2023-04-25T03:59:33;2.17;;;0.50;;
70558;SDS011;58108;48.094;11.838;2023-04-25T04:01:58;1.43;;;0.27;;
70558;SDS011;58108;48.094;11.838;2023-04-25T04:04:23;2.10;;;0.60;;
70558;SDS011;58108;48.094;11.838;2023-04-25T04:06:48;2.63;;;0.50;;
70558;SDS011;58108;48.094;11.838;2023-04-25T04:09:13;2.37;;;0.60;;
70558;SDS011;58108;48.094;11.838;2023-04-25T04:11:40;4.70;;;0.47;;
70558;SDS011;58108;48.094;11.838;2023-04-25T04:14:06;3.20;;;0.53;;
70558;SDS011;58108;48.094;11.838;2023-04-25T04:16:31;3.15;;;0.80;;
70558;SDS011;58108;48.094;11.838;2023-04-25T04:18:56;2.17;;;0.40;;
70558;SDS011;58108;48.094;11.838;2023-04-25T04:21:21;2.73;;;0.57;;
70558;SDS011;58108;48.094;11.838;2023-04-25T04:23:47;2.87;;;0.67;;
70558;SDS011;58108;48.094;11.838;2023-04-25T04:26:12;2.92;;;0.90;;
70558;SDS011;58108;48.094;11.838;2023-04-25T04:28:40;3.47;;;0.80;;
70558;SDS011;58108;48.094;11.838;2023-04-25T04:31:05;3.85;;;0.70;;
70558;SDS011;58108;48.094;11.838;2023-04-25T04:33:30;2.43;;;0.60;;
70558;SDS011;58108;48.094;11.838;2023-04-25T04:35:56;2.93;;;0.50;;
70558;SDS011;58108;48.094;11.838;2023-04-25T04:38:21;3.10;;;0.80;;
70558;SDS011;58108;48.094;11.838;2023-04-25T04:40:46;1.53;;;0.40;;
70558;SDS011;58108;48.094;11.838;2023-04-25T04:43:12;2.78;;;0.30;;
70558;SDS011;58108;48.094;11.838;2023-04-25T04:45:38;2.40;;;0.60;;
70558;SDS011;58108;48.094;11.838;2023-04-25T04:48:05;3.42;;;0.75;;
70558;SDS011;58108;48.094;11.838;2023-04-25T04:50:30;2.87;;;0.87;;
70558;SDS011;58108;48.094;11.838;2023-04-25T04:52:57;3.50;;;0.80;;
70558;SDS011;58108;48.094;11.838;2023-04-25T04:55:22;3.40;;;0.80;;
70558;SDS011;58108;48.094;11.838;2023-04-25T04:57:47;2.53;;;0.67;;
70558;SDS011;58108;48.094;11.838;2023-04-25T05:00:13;3.60;;;0.80;;
70558;SDS011;58108;48.094;11.838;2023-04-25T05:02:38;3.27;;;0.63;;
70558;SDS011;58108;48.094;11.838;2023-04-25T05:05:04;3.92;;;0.95;;
70558;SDS011;58108;48.094;11.838;2023-04-25T05:07:30;2.87;;;0.70;;
70558;SDS011;58108;48.094;11.838;2023-04-25T05:09:55;3.07;;;0.73;;
70558;SDS011;58108;48.094;11.838;2023-04-25T05:12:20;2.60;;;0.70;;
70558;SDS011;58108;48.094;11.838;2023-04-25T05:14:45;2.40;;;0.50;;
70558;SDS011;58108;48.094;11.838;2023-04-25T05:17:10;4.50;;;0.77;;
70558;SDS011;58108;48.094;11.838;2023-04-25T05:19:35;3.00;;;1.00;;
70558;SDS011;58108;48.094;11.838;2023-04-25T05:22:01;3.03;;;0.80;;
70558;SDS011;58108;48.094;11.838;2023-04-25T05:24:26;2.20;;;0.50;;
70558;SDS011;58108;48.094;11.838;2023-04-25T05:26:52;3.50;;;0.77;;
70558;SDS011;58108;48.094;11.838;2023-04-25T05:29:17;4.40;;;1.10;;
70558;SDS011;58108;48.094;11.838;2023-04-25T05:31:42;2.53;;;0.60;;
70558;SDS011;58108;48.094;11.838;2023-04-25T05:34:07;3.20;;;1.05;;
70558;SDS011;58108;48.094;11.838;2023-04-25T05:36:32;4.03;;;1.00;;
70558;SDS011;58108;48.094;11.838;2023-04-25T05:38:58;5.07;;;0.70;;
70558;SDS011;58108;48.094;11.838;2023-04-25T05:41:23;4.27;;;0.90;;
70558;SDS011;58108;48.094;11.838;2023-04-25T05:43:48;2.43;;;0.63;;
70558;SDS011;58108;48.094;11.838;2023-04-25T05:46:14;3.67;;;0.82;;
70558;SDS011;58108;48.094;11.838;2023-04-25T05:48:41;3.15;;;0.70;;
70558;SDS011;58108;48.094;11.838;2023-04-25T05:51:07;3.97;;;1.37;;
70558;SDS011;58108;48.094;11.838;2023-04-25T05:53:32;5.70;;;1.30;;
70558;SDS011;58108;48.094;11.838;2023-04-25T05:55:57;5.75;;;1.27;;
70558;SDS011;58108;48.094;11.838;2023-04-25T05:58:22;4.20;;;1.50;;
70558;SDS011;58108;48.094;11.838;2023-04-25T06:00:47;4.23;;;1.10;;
70558;SDS011;58108;48.094;11.838;2023-04-25T06:03:13;4.30;;;1.20;;
70558;SDS011;58108;48.094;11.838;2023-04-25T06:05:41;3.50;;;1.30;;
70558;SDS011;58108;48.094;11.838;2023-04-25T06:08:06;4.18;;;1.02;;
70558;SDS011;58108;48.094;11.838;2023-04-25T06:10:31;4.37;;;1.10;;
70558;SDS011;58108;48.094;11.838;2023-04-25T06:12:56;3.73;;;1.30;;
70558;SDS011;58108;48.094;11.838;2023-04-25T06:15:21;5.67;;;1.53;;
70558;SDS011;58108;48.094;11.838;2023-04-25T06:17:47;4.50;;;1.00;;
70558;SDS011;58108;48.094;11.838;2023-04-25T06:20:12;3.97;;;1.20;;
70558;SDS011;58108;48.094;11.838;2023-04-25T06:22:37;3.13;;;0.83;;
70558;SDS011;58108;48.094;11.838;2023-04-25T06:25:02;3.70;;;1.00;;
70558;SDS011;58108;48.094;11.838;2023-04-25T06:27:29;4.40;;;1.02;;
70558;SDS011;58108;48.094;11.838;2023-04-25T06:29:54;2.67;;;0.70;;
70558;SDS011;58108;48.094;11.838;2023-04-25T06:32:19;3.30;;;0.90;;
70558;SDS011;58108;48.094;11.838;2023-04-25T06:34:44;4.07;;;0.57;;
70558;SDS011;58108;48.094;11.838;2023-04-25T06:37:10;3.23;;;0.80;;
70558;SDS011;58108;48.094;11.838;2023-04-25T06:39:35;2.97;;;0.80;;
70558;SDS011;58108;48.094;11.838;2023-04-25T06:42:00;2.97;;;0.77;;
70558;SDS011;58108;48.094;11.838;2023-04-25T06:44:26;2.30;;;0.73;;
70558;SDS011;58108;48.094;11.838;2023-04-25T06:46:51;2.83;;;0.50;;
70558;SDS011;58108;48.094;11.838;2023-04-25T06:49:16;2.13;;;0.30;;
70558;SDS011;58108;48.094;11.838;2023-04-25T06:51:41;2.50;;;0.80;;
70558;SDS011;58108;48.094;11.838;2023-04-25T06:54:06;2.53;;;0.60;;
70558;SDS011;58108;48.094;11.838;2023-04-25T06:56:31;2.07;;;0.47;;
70558;SDS011;58108;48.094;11.838;2023-04-25T06:58:57;2.40;;;0.40;;
70558;SDS011;58108;48.094;11.838;2023-04-25T07:01:22;2.63;;;0.60;;
70558;SDS011;58108;48.094;11.838;2023-04-25T07:03:47;2.17;;;0.30;;
70558;SDS011;58108;48.094;11.838;2023-04-25T07:06:12;2.70;;;0.30;;
70558;SDS011;58108;48.094;11.838;2023-04-25T07:08:37;2.13;;;0.47;;
70558;SDS011;58108;48.094;11.838;2023-04-25T07:11:03;2.37;;;0.50;;
70558;SDS011;58108;48.094;11.838;2023-04-25T07:13:28;2.40;;;0.60;;
70558;SDS011;58108;48.094;11.838;2023-04-25T07:15:53;4.27;;;0.60;;
70558;SDS011;58108;48.094;11.838;2023-04-25T07:18:18;3.27;;;0.53;;
70558;SDS011;58108;48.094;11.838;2023-04-25T07:20:43;3.27;;;0.60;;
70558;SDS011;58108;48.094;11.838;2023-04-25T07:23:08;2.47;;;0.80;;
70558;SDS011;58108;48.094;11.838;2023-04-25T07:25:34;2.57;;;0.73;;
70558;SDS011;58108;48.094;11.838;2023-04-25T07:28:00;3.78;;;1.10;;
70558;SDS011;58108;48.094;11.838;2023-04-25T07:30:25;3.03;;;0.87;;
70558;SDS011;58108;48.094;11.838;2023-04-25T07:32:50;1.97;;;0.37;;
70558;SDS011;58108;48.094;11.838;2023-04-25T07:35:16;2.40;;;0.90;;
70558;SDS011;58108;48.094;11.838;2023-04-25T07:37:41;5.57;;;0.90;;
70558;SDS011;58108;48.094;11.838;2023-04-25T07:40:06;3.07;;;0.67;;
70558;SDS011;58108;48.094;11.838;2023-04-25T07:42:32;2.17;;;0.55;;
70558;SDS011;58108;48.094;11.838;2023-04-25T07:44:57;2.13;;;0.60;;
70558;SDS011;58108;48.094;11.838;2023-04-25T07:47:23;3.77;;;0.80;;
70558;SDS011;58108;48.094;11.838;2023-04-25T07:49:48;2.20;;;0.70;;
70558;SDS011;58108;48.094;11.838;2023-04-25T07:52:13;3.17;;;0.97;;
70558;SDS011;58108;48.094;11.838;2023-04-25T07:54:38;3.23;;;0.80;;
70558;SDS011;58108;48.094;11.838;2023-04-25T07:57:03;2.47;;;0.57;;
70558;SDS011;58108;48.094;11.838;2023-04-25T07:59:31;3.28;;;0.73;;
70558;SDS011;58108;48.094;11.838;2023-04-25T08:01:56;2.37;;;0.63;;
70558;SDS011;58108;48.094;11.838;2023-04-25T08:04:22;3.67;;;0.65;;
70558;SDS011;58108;48.094;11.838;2023-04-25T08:06:47;3.47;;;0.63;;
70558;SDS011;58108;48.094;11.838;2023-04-25T08:09:12;4.17;;;0.67;;
70558;SDS011;58108;48.094;11.838;2023-04-25T08:11:37;4.03;;;0.80;;
70558;SDS011;58108;48.094;11.838;2023-04-25T08:14:03;3.53;;;1.00;;
70558;SDS011;58108;48.094;11.838;2023-04-25T08:16:28;2.67;;;0.57;;
70558;SDS011;58108;48.094;11.838;2023-04-25T08:18:53;3.37;;;0.73;;
70558;SDS011;58108;48.094;11.838;2023-04-25T08:21:19;3.50;;;0.63;;
70558;SDS011;58108;48.094;11.838;2023-04-25T08:23:44;3.33;;;1.00;;
70558;SDS011;58108;48.094;11.838;2023-04-25T08:26:09;3.55;;;0.75;;
70558;SDS011;58108;48.094;11.838;2023-04-25T08:28:35;2.50;;;0.67;;
70558;SDS011;58108;48.094;11.838;2023-04-25T08:31:00;3.40;;;0.77;;
70558;SDS011;58108;48.094;11.838;2023-04-25T08:33:25;3.57;;;0.73;;
70558;SDS011;58108;48.094;11.838;2023-04-25T08:35:50;2.63;;;0.55;;
70558;SDS011;58108;48.094;11.838;2023-04-25T08:38:16;2.53;;;0.50;;
70558;SDS011;58108;48.094;11.838;2023-04-25T08:40:41;4.23;;;0.97;;
70558;SDS011;58108;48.094;11.838;2023-04-25T08:43:08;2.28;;;0.50;;
70558;SDS011;58108;48.094;11.838;2023-04-25T08:45:39;2.47;;;0.80;;
70558;SDS011;58108;48.094;11.838;2023-04-25T08:48:15;2.72;;;0.90;;
70558;SDS011;58108;48.094;11.838;2023-04-25T08:50:50;3.20;;;0.90;;
70558;SDS011;58108;48.094;11.838;2023-04-25T08:53:16;5.77;;;1.20;;
70558;SDS011;58108;48.094;11.838;2023-04-25T08:55:45;3.65;;;0.90;;
70558;SDS011;58108;48.094;11.838;2023-04-25T08:58:10;4.05;;;1.00;;
70558;SDS011;58108;48.094;11.838;2023-04-25T09:00:36;3.83;;;0.93;;
70558;SDS011;58108;48.094;11.838;2023-04-25T09:03:01;2.23;;;0.73;;
70558;SDS011;58108;48.094;11.838;2023-04-25T09:05:27;3.57;;;1.03;;
70558;SDS011;58108;48.094;11.838;2023-04-25T09:07:53;2.75;;;0.68;;
70558;SDS011;58108;48.094;11.838;2023-04-25T09:10:18;2.43;;;0.63;;
70558;SDS011;58108;48.094;11.838;2023-04-25T09:12:44;5.83;;;0.70;;
70558;SDS011;58108;48.094;11.838;2023-04-25T09:15:12;3.80;;;1.30;;
70558;SDS011;58108;48.094;11.838;2023-04-25T09:17:37;3.05;;;0.77;;
70558;SDS011;58108;48.094;11.838;2023-04-25T09:20:08;2.70;;;1.10;;
70558;SDS011;58108;48.094;11.838;2023-04-25T09:22:34;4.10;;;1.10;;
70558;SDS011;58108;48.094;11.838;2023-04-25T09:25:01;4.05;;;0.85;;
70558;SDS011;58108;48.094;11.838;2023-04-25T09:27:27;2.57;;;0.77;;
70558;SDS011;58108;48.094;11.838;2023-04-25T09:29:58;3.30;;;0.80;;
70558;SDS011;58108;48.094;11.838;2023-04-25T09:32:26;1.48;;;0.30;;
70558;SDS011;58108;48.094;11.838;2023-04-25T09:34:53;3.07;;;0.53;;
70558;SDS011;58108;48.094;11.838;2023-04-25T09:37:25;3.42;;;0.73;;
70558;SDS011;58108;48.094;11.838;2023-04-25T09:39:52;2.80;;;1.00;;
70558;SDS011;58108;48.094;11.838;2023-04-25T09:42:18;2.00;;;0.50;;
70558;SDS011;58108;48.094;11.838;2023-04-25T09:44:46;2.53;;;0.70;;
70558;SDS011;58108;48.094;11.838;2023-04-25T09:47:13;3.10;;;0.55;;
70558;SDS011;58108;48.094;11.838;2023-04-25T09:49:39;3.50;;;0.68;;
70558;SDS011;58108;48.094;11.838;2023-04-25T09:52:05;2.60;;;0.77;;
70558;SDS011;58108;48.094;11.838;2023-04-25T09:54:30;3.93;;;0.80;;
70558;SDS011;58108;48.094;11.838;2023-04-25T09:56:55;2.17;;;0.47;;
70558;SDS011;58108;48.094;11.838;2023-04-25T09:59:22;2.03;;;0.47;;
70558;SDS011;58108;48.094;11.838;2023-04-25T10:01:50;3.95;;;0.65;;
70558;SDS011;58108;48.094;11.838;2023-04-25T10:04:21;3.00;;;0.70;;
70558;SDS011;58108;48.094;11.838;2023-04-25T10:06:48;2.55;;;0.70;;
70558;SDS011;58108;48.094;11.838;2023-04-25T10:09:14;1.65;;;0.50;;
70558;SDS011;58108;48.094;11.838;2023-04-25T10:11:39;3.65;;;0.85;;
70558;SDS011;58108;48.094;11.838;2023-04-25T10:14:05;3.23;;;0.83;;
70558;SDS011;58108;48.094;11.838;2023-04-25T10:16:31;2.10;;;0.53;;
70558;SDS011;58108;48.094;11.838;2023-04-25T10:18:56;2.70;;;0.45;;
70558;SDS011;58108;48.094;11.838;2023-04-25T10:21:21;2.97;;;0.67;;
70558;SDS011;58108;48.094;11.838;2023-04-25T10:23:47;2.45;;;0.68;;
70558;SDS011;58108;48.094;11.838;2023-04-25T10:26:13;2.17;;;0.57;;
70558;SDS011;58108;48.094;11.838;2023-04-25T10:29:00;2.75;;;0.80;;
70558;SDS011;58108;48.094;11.838;2023-04-25T10:31:24;3.58;;;1.10;;
70558;SDS011;58108;48.094;11.838;2023-04-25T10:33:50;5.53;;;1.15;;
70558;SDS011;58108;48.094;11.838;2023-04-25T10:36:19;4.37;;;0.63;;
70558;SDS011;58108;48.094;11.838;2023-04-25T10:38:47;3.35;;;0.50;;
70558;SDS011;58108;48.094;11.838;2023-04-25T10:41:13;3.38;;;1.00;;
70558;SDS011;58108;48.094;11.838;2023-04-25T10:43:39;3.97;;;0.90;;
70558;SDS011;58108;48.094;11.838;2023-04-25T10:48:49;2.22;;;0.60;;
70558;SDS011;58108;48.094;11.838;2023-04-25T10:53:46;2.15;;;0.63;;
70558;SDS011;58108;48.094;11.838;2023-04-25T10:59:01;2.33;;;0.67;;
70558;SDS011;58108;48.094;11.838;2023-04-25T11:01:27;2.53;;;0.70;;
70558;SDS011;58108;48.094;11.838;2023-04-25T11:03:59;3.17;;;0.70;;
70558;SDS011;58108;48.094;11.838;2023-04-25T11:06:28;2.97;;;0.40;;
70558;SDS011;58108;48.094;11.838;2023-04-25T11:08:54;3.55;;;0.80;;
70558;SDS011;58108;48.094;11.838;2023-04-25T11:11:20;3.07;;;0.50;;
70558;SDS011;58108;48.094;11.838;2023-04-25T11:13:49;2.70;;;0.63;;
70558;SDS011;58108;48.094;11.838;2023-04-25T11:16:15;2.22;;;0.35;;
70558;SDS011;58108;48.094;11.838;2023-04-25T11:18:43;2.07;;;0.57;;
70558;SDS011;58108;48.094;11.838;2023-04-25T11:21:09;2.30;;;0.70;;
70558;SDS011;58108;48.094;11.838;2023-04-25T11:23:34;2.50;;;0.50;;
70558;SDS011;58108;48.094;11.838;2023-04-25T11:26:00;2.00;;;0.43;;
70558;SDS011;58108;48.094;11.838;2023-04-25T11:28:26;5.20;;;0.75;;
70558;SDS011;58108;48.094;11.838;2023-04-25T11:30:51;2.23;;;0.30;;
70558;SDS011;58108;48.094;11.838;2023-04-25T11:33:16;3.43;;;0.50;;
70558;SDS011;58108;48.094;11.838;2023-04-25T11:35:42;2.00;;;0.60;;
70558;SDS011;58108;48.094;11.838;2023-04-25T11:38:07;2.07;;;0.43;;
70558;SDS011;58108;48.094;11.838;2023-04-25T11:40:32;3.17;;;0.83;;
70558;SDS011;58108;48.094;11.838;2023-04-25T11:42:59;2.73;;;0.90;;
70558;SDS011;58108;48.094;11.838;2023-04-25T11:45:24;2.40;;;0.60;;
70558;SDS011;58108;48.094;11.838;2023-04-25T11:47:50;2.70;;;0.65;;
70558;SDS011;58108;48.094;11.838;2023-04-25T11:50:15;3.47;;;1.30;;
70558;SDS011;58108;48.094;11.838;2023-04-25T11:52:41;3.20;;;0.80;;
70558;SDS011;58108;48.094;11.838;2023-04-25T11:55:17;3.13;;;0.90;;
70558;SDS011;58108;48.094;11.838;2023-04-25T11:57:42;3.15;;;1.00;;
70558;SDS011;58108;48.094;11.838;2023-04-25T12:02:40;2.42;;;0.52;;
70558;SDS011;58108;48.094;11.838;2023-04-25T12:05:06;2.10;;;0.50;;
70558;SDS011;58108;48.094;11.838;2023-04-25T12:07:32;2.97;;;0.43;;
70558;SDS011;58108;48.094;11.838;2023-04-25T12:09:57;2.90;;;0.90;;
70558;SDS011;58108;48.094;11.838;2023-04-25T12:12:26;2.60;;;0.47;;
70558;SDS011;58108;48.094;11.838;2023-04-25T12:14:52;3.53;;;0.70;;
70558;SDS011;58108;48.094;11.838;2023-04-25T12:17:17;3.27;;;0.40;;
70558;SDS011;58108;48.094;11.838;2023-04-25T12:19:42;2.83;;;0.80;;
70558;SDS011;58108;48.094;11.838;2023-04-25T12:22:18;5.60;;;0.70;;
70558;SDS011;58108;48.094;11.838;2023-04-25T12:24:45;2.85;;;0.80;;
70558;SDS011;58108;48.094;11.838;2023-04-25T12:27:10;3.07;;;0.60;;
70558;SDS011;58108;48.094;11.838;2023-04-25T12:29:35;4.73;;;0.70;;
70558;SDS011;58108;48.094;11.838;2023-04-25T12:32:01;5.00;;;0.97;;
70558;SDS011;58108;48.094;11.838;2023-04-25T12:34:29;2.63;;;0.63;;
70558;SDS011;58108;48.094;11.838;2023-04-25T12:36:56;3.75;;;0.60;;
70558;SDS011;58108;48.094;11.838;2023-04-25T12:39:23;2.23;;;0.40;;
70558;SDS011;58108;48.094;11.838;2023-04-25T12:41:49;5.78;;;0.40;;
70558;SDS011;58108;48.094;11.838;2023-04-25T12:44:14;5.18;;;0.75;;
70558;SDS011;58108;48.094;11.838;2023-04-25T12:46:40;4.53;;;1.30;;
70558;SDS011;58108;48.094;11.838;2023-04-25T12:49:06;2.72;;;0.70;;
70558;SDS011;58108;48.094;11.838;2023-04-25T12:51:32;2.07;;;0.67;;
70558;SDS011;58108;48.094;11.838;2023-04-25T12:54:01;2.65;;;0.90;;
70558;SDS011;58108;48.094;11.838;2023-04-25T12:56:29;2.20;;;0.50;;
70558;SDS011;58108;48.094;11.838;2023-04-25T12:58:55;2.90;;;0.70;;
70558;SDS011;58108;48.094;11.838;2023-04-25T13:01:20;3.83;;;0.40;;
70558;SDS011;58108;48.094;11.838;2023-04-25T13:03:46;2.97;;;0.93;;
70558;SDS011;58108;48.094;11.838;2023-04-25T13:06:11;2.17;;;0.60;;
70558;SDS011;58108;48.094;11.838;2023-04-25T13:08:37;3.23;;;0.40;;
70558;SDS011;58108;48.094;11.838;2023-04-25T13:11:03;1.35;;;0.30;;
70558;SDS011;58108;48.094;11.838;2023-04-25T13:13:29;2.40;;;0.40;;
70558;SDS011;58108;48.094;11.838;2023-04-25T13:15:54;1.60;;;0.27;;
70558;SDS011;58108;48.094;11.838;2023-04-25T13:18:19;1.53;;;0.20;;
70558;SDS011;58108;48.094;11.838;2023-04-25T13:20:44;2.00;;;0.30;;
70558;SDS011;58108;48.094;11.838;2023-04-25T13:23:11;1.38;;;0.20;;
70558;SDS011;58108;48.094;11.838;2023-04-25T13:25:36;1.73;;;0.27;;
70558;SDS011;58108;48.094;11.838;2023-04-25T13:28:01;3.33;;;0.50;;
70558;SDS011;58108;48.094;11.838;2023-04-25T13:30:26;2.00;;;0.40;;
70558;SDS011;58108;48.094;11.838;2023-04-25T13:32:52;2.40;;;0.40;;
70558;SDS011;58108;48.094;11.838;2023-04-25T13:35:17;2.20;;;0.30;;
70558;SDS011;58108;48.094;11.838;2023-04-25T13:37:42;1.80;;;0.60;;
70558;SDS011;58108;48.094;11.838;2023-04-25T13:40:08;1.20;;;0.30;;
70558;SDS011;58108;48.094;11.838;2023-04-25T13:42:35;1.60;;;0.55;;
70558;SDS011;58108;48.094;11.838;2023-04-25T13:45:00;2.88;;;0.70;;
70558;SDS011;58108;48.094;11.838;2023-04-25T13:47:25;2.10;;;0.40;;
70558;SDS011;58108;48.094;11.838;2023-04-25T13:49:51;2.43;;;0.43;;
70558;SDS011;58108;48.094;11.838;2023-04-25T13:52:16;2.33;;;0.40;;
70558;SDS011;58108;48.094;11.838;2023-04-25T13:54:41;1.43;;;0.40;;
70558;SDS011;58108;48.094;11.838;2023-04-25T13:57:07;1.70;;;0.30;;
70558;SDS011;58108;48.094;11.838;2023-04-25T13:59:32;1.73;;;0.40;;
70558;SDS011;58108;48.094;11.838;2023-04-25T14:01:57;1.70;;;0.20;;
70558;SDS011;58108;48.094;11.838;2023-04-25T14:04:22;1.83;;;0.43;;
70558;SDS011;58108;48.094;11.838;2023-04-25T14:06:48;2.13;;;0.33;;
70558;SDS011;58108;48.094;11.838;2023-04-25T14:09:13;2.43;;;0.30;;
70558;SDS011;58108;48.094;11.838;2023-04-25T14:11:38;2.87;;;0.43;;
70558;SDS011;58108;48.094;11.838;2023-04-25T14:14:04;1.50;;;0.30;;
70558;SDS011;58108;48.094;11.838;2023-04-25T14:16:29;2.50;;;0.30;;
70558;SDS011;58108;48.094;11.838;2023-04-25T14:18:56;1.92;;;0.30;;
70558;SDS011;58108;48.094;11.838;2023-04-25T14:21:22;1.95;;;0.20;;
70558;SDS011;58108;48.094;11.838;2023-04-25T14:23:48;1.80;;;0.40;;
70558;SDS011;58108;48.094;11.838;2023-04-25T14:26:13;2.23;;;0.50;;
70558;SDS011;58108;48.094;11.838;2023-04-25T14:28:38;1.80;;;0.30;;
70558;SDS011;58108;48.094;11.838;2023-04-25T14:31:03;3.13;;;0.43;;
70558;SDS011;58108;48.094;11.838;2023-04-25T14:33:28;2.63;;;0.33;;
70558;SDS011;58108;48.094;11.838;2023-04-25T14:35:54;2.50;;;0.50;;